createdAt,value
2016-08-18T01:12:29.647Z,0
2016-08-18T01:15:17.897Z,0
2016-08-18T01:17:29.451Z,0
2016-08-18T01:18:21.006Z,0
2016-08-18T01:18:56.079Z,0
2016-08-18T01:19:27.420Z,0
2016-08-18T01:20:39.559Z,0
2016-08-18T01:21:03.975Z,0
2016-08-18T01:21:39.831Z,0
2016-08-18T01:22:11.127Z,0
2016-08-18T02:48:27.665Z,0
2016-08-18T02:49:02.828Z,0
2016-08-18T02:49:35.147Z,0
2016-08-18T02:49:56.971Z,0
2016-08-18T02:50:50.276Z,0
2016-08-18T02:51:19.349Z,0
2016-08-18T02:51:48.679Z,0
2016-08-18T02:52:21.048Z,0
2016-08-18T02:53:22.764Z,0
2016-08-18T03:22:35.339Z,0
2016-08-18T04:17:53.724Z,0
2016-08-18T04:19:53.022Z,0
2016-08-18T04:27:55.204Z,1
2016-08-18T05:02:57.057Z,5
2016-08-18T05:14:51.525Z,6
2016-08-18T05:15:18.072Z,6
2016-08-18T05:15:49.345Z,6
2016-08-18T05:16:14.857Z,6
2016-08-18T05:16:41.355Z,6
2016-08-18T05:17:04.084Z,6
2016-08-18T05:17:25.847Z,6
2016-08-18T05:17:48.564Z,6
2016-08-18T05:18:39.579Z,6
2016-08-18T05:19:04.253Z,6
2016-08-18T05:19:28.598Z,6
2016-08-18T05:19:55.117Z,6
2016-08-18T05:20:20.853Z,6
2016-08-18T05:20:47.336Z,6
2016-08-18T05:21:16.624Z,6
2016-08-18T05:21:43.618Z,6
2016-08-18T05:22:41.700Z,7
2016-08-18T05:23:08.203Z,7
2016-08-18T05:23:29.937Z,7
2016-08-18T05:23:51.657Z,7
2016-08-18T05:24:16.058Z,7
2016-08-18T05:24:42.545Z,7
2016-08-18T05:25:08.213Z,7
2016-08-18T05:25:56.687Z,7
2016-08-18T05:26:18.403Z,7
2016-08-18T05:26:40.129Z,7
2016-08-18T05:27:07.628Z,7
2016-08-18T05:28:05.896Z,7
2016-08-18T05:28:27.639Z,7
2016-08-18T05:28:49.447Z,7
2016-08-18T05:29:11.173Z,7
2016-08-18T05:29:37.674Z,7
2016-08-18T05:29:59.425Z,7
2016-08-18T05:30:21.156Z,7
2016-08-18T05:31:09.364Z,7
2016-08-18T05:31:31.088Z,7
2016-08-18T05:31:57.581Z,7
2016-08-18T05:33:04.877Z,8
2016-08-18T05:34:19.298Z,8
2016-08-18T05:36:49.262Z,8
2016-08-18T05:37:16.746Z,8
2016-08-18T05:37:39.925Z,8
2016-08-18T05:38:47.873Z,8
2016-08-18T05:39:10.746Z,8
2016-08-18T05:39:32.475Z,8
2016-08-18T05:39:54.196Z,8
2016-08-18T05:40:15.981Z,8
2016-08-18T05:40:37.716Z,8
2016-08-18T05:40:59.454Z,8
2016-08-18T05:41:21.198Z,8
2016-08-18T05:41:42.920Z,8
2016-08-18T05:42:07.681Z,8
2016-08-18T05:42:29.445Z,8
2016-08-18T05:42:51.163Z,9
2016-08-18T05:43:13.024Z,9
2016-08-18T05:43:35.751Z,9
2016-08-18T05:44:03.254Z,9
2016-08-18T05:44:53.515Z,9
2016-08-18T05:45:46.559Z,9
2016-08-18T05:46:13.073Z,9
2016-08-18T05:46:35.802Z,9
2016-08-18T05:47:00.268Z,9
2016-08-18T05:47:27.774Z,9
2016-08-18T05:47:49.524Z,9
2016-08-18T05:48:15.980Z,9
2016-08-18T05:48:43.496Z,9
2016-08-18T05:49:05.243Z,9
2016-08-18T05:51:20.665Z,9
2016-08-18T05:51:43.414Z,9
2016-08-18T05:52:06.239Z,9
2016-08-18T05:52:28.962Z,9
2016-08-18T05:53:20.240Z,9
2016-08-18T05:53:55.241Z,10
2016-08-18T05:54:27.502Z,10
2016-08-18T05:54:49.245Z,10
2016-08-18T05:55:39.510Z,10
2016-08-18T05:56:01.249Z,10
2016-08-18T05:56:33.522Z,10
2016-08-18T05:56:56.645Z,10
2016-08-18T05:57:23.164Z,10
2016-08-18T05:57:44.897Z,10
2016-08-18T05:58:12.402Z,10
2016-08-18T05:58:34.306Z,10
2016-08-18T05:58:56.166Z,10
2016-08-18T05:59:22.759Z,10
2016-08-18T05:59:44.591Z,10
2016-08-18T06:00:06.684Z,10
2016-08-18T06:00:31.954Z,10
2016-08-18T06:00:53.782Z,10
2016-08-18T06:01:47.944Z,10
2016-08-18T06:02:09.740Z,10
2016-08-18T06:02:31.492Z,10
2016-08-18T06:02:53.257Z,10
2016-08-18T06:03:19.777Z,10
2016-08-18T06:03:41.521Z,10
2016-08-18T06:04:08.091Z,10
2016-08-18T06:04:30.918Z,10
2016-08-18T06:04:52.655Z,10
2016-08-18T06:05:14.389Z,11
2016-08-18T06:05:37.116Z,11
2016-08-18T06:05:58.930Z,11
2016-08-18T06:06:20.731Z,11
2016-08-18T06:06:42.470Z,11
2016-08-18T06:07:05.285Z,11
2016-08-18T06:07:28.054Z,11
2016-08-18T06:07:51.033Z,11
2016-08-18T06:08:17.675Z,11
2016-08-18T06:08:40.532Z,11
2016-08-18T06:09:04.395Z,11
2016-08-18T06:09:26.141Z,11
2016-08-18T06:10:24.597Z,11
2016-08-18T06:10:46.857Z,11
2016-08-18T06:11:13.409Z,11
2016-08-18T06:11:40.092Z,11
2016-08-18T06:12:01.940Z,11
2016-08-18T06:12:23.769Z,11
2016-08-18T06:12:45.647Z,11
2016-08-18T06:13:07.712Z,11
2016-08-18T06:13:29.733Z,11
2016-08-18T06:14:28.790Z,11
2016-08-18T06:14:50.664Z,11
2016-08-18T06:15:14.547Z,11
2016-08-18T06:15:41.727Z,11
2016-08-18T06:16:04.486Z,11
2016-08-18T06:16:26.242Z,12
2016-08-18T06:16:49.038Z,12
2016-08-18T06:17:42.700Z,12
2016-08-18T06:18:19.272Z,12
2016-08-18T06:18:41.022Z,12
2016-08-18T06:19:02.792Z,12
2016-08-18T06:19:25.544Z,12
2016-08-18T06:19:47.292Z,12
2016-08-18T06:20:13.798Z,12
2016-08-18T06:20:41.340Z,12
2016-08-18T06:21:07.841Z,12
2016-08-18T06:21:34.377Z,12
2016-08-18T06:21:56.227Z,12
2016-08-18T06:22:18.083Z,12
2016-08-18T06:22:40.083Z,12
2016-08-18T06:23:38.856Z,12
2016-08-18T06:24:05.553Z,12
2016-08-18T06:24:32.099Z,12
2016-08-18T06:24:53.985Z,12
2016-08-18T06:25:15.807Z,12
2016-08-18T06:25:39.104Z,12
2016-08-18T06:26:06.467Z,12
2016-08-18T06:26:28.342Z,12
2016-08-18T06:26:50.240Z,12
2016-08-18T06:27:12.176Z,12
2016-08-18T06:27:34.025Z,12
2016-08-18T06:27:56.986Z,12
2016-08-18T06:28:28.304Z,12
2016-08-18T06:28:50.046Z,12
2016-08-18T06:29:11.903Z,12
2016-08-18T06:29:33.725Z,13
2016-08-18T06:29:55.664Z,13
2016-08-18T06:30:20.278Z,13
2016-08-18T06:30:42.146Z,13
2016-08-18T06:31:04.979Z,13
2016-08-18T06:31:31.510Z,13
2016-08-18T06:32:22.840Z,13
2016-08-18T06:32:44.665Z,13
2016-08-18T06:33:11.331Z,13
2016-08-18T06:33:59.680Z,13
2016-08-18T06:34:21.582Z,13
2016-08-18T06:35:15.628Z,13
2016-08-18T06:35:38.500Z,13
2016-08-18T06:36:32.639Z,13
2016-08-18T06:36:54.372Z,13
2016-08-18T06:37:16.095Z,13
2016-08-18T06:37:37.814Z,13
2016-08-18T06:37:59.541Z,13
2016-08-18T06:38:21.308Z,13
2016-08-18T06:38:43.026Z,13
2016-08-18T06:39:04.748Z,13
2016-08-18T06:39:26.463Z,13
2016-08-18T06:39:48.266Z,13
2016-08-18T06:40:10.457Z,13
2016-08-18T06:40:32.178Z,13
2016-08-18T06:40:53.895Z,13
2016-08-18T06:41:15.615Z,13
2016-08-18T06:41:37.327Z,13
2016-08-18T06:41:59.043Z,13
2016-08-18T06:42:20.762Z,13
2016-08-18T06:42:42.511Z,13
2016-08-18T06:43:04.240Z,13
2016-08-18T06:43:25.962Z,13
2016-08-18T06:43:47.690Z,13
2016-08-18T06:44:09.420Z,13
2016-08-18T06:44:31.214Z,13
2016-08-18T06:44:52.953Z,13
2016-08-18T06:45:14.674Z,13
2016-08-18T06:45:36.458Z,14
2016-08-18T06:45:58.176Z,14
2016-08-18T06:46:19.896Z,14
2016-08-18T06:46:41.606Z,14
2016-08-18T06:47:04.319Z,14
2016-08-18T06:47:26.036Z,14
2016-08-18T06:47:47.784Z,14
2016-08-18T06:48:14.271Z,14
2016-08-18T06:48:35.985Z,14
2016-08-18T06:48:57.709Z,14
2016-08-18T06:49:19.430Z,14
2016-08-18T06:49:41.153Z,14
2016-08-18T06:50:02.871Z,14
2016-08-18T06:50:25.000Z,14
2016-08-18T06:50:46.721Z,14
2016-08-18T06:51:08.474Z,14
2016-08-18T06:51:30.178Z,14
2016-08-18T06:51:51.894Z,14
2016-08-18T06:52:13.613Z,14
2016-08-18T06:52:35.340Z,14
2016-08-18T06:52:57.085Z,14
2016-08-18T06:53:18.799Z,14
2016-08-18T06:53:40.652Z,14
2016-08-18T06:54:02.367Z,14
2016-08-18T06:54:24.106Z,14
2016-08-18T06:54:45.832Z,14
2016-08-18T06:55:07.545Z,14
2016-08-18T06:55:29.263Z,14
2016-08-18T06:55:50.998Z,14
2016-08-18T06:56:12.719Z,14
2016-08-18T06:56:34.458Z,14
2016-08-18T06:56:56.175Z,14
2016-08-18T06:57:17.892Z,14
2016-08-18T06:57:39.610Z,14
2016-08-18T06:58:01.353Z,14
2016-08-18T06:58:23.051Z,14
2016-08-18T06:58:44.771Z,14
2016-08-18T06:59:06.489Z,14
2016-08-18T06:59:28.213Z,14
2016-08-18T06:59:49.932Z,14
2016-08-18T07:00:11.732Z,14
2016-08-18T07:00:34.052Z,14
2016-08-18T07:00:55.802Z,14
2016-08-18T07:01:17.517Z,14
2016-08-18T07:01:39.281Z,14
2016-08-18T07:02:01.142Z,14
2016-08-18T07:02:27.626Z,14
2016-08-18T07:02:54.209Z,14
2016-08-18T07:03:15.936Z,14
2016-08-18T07:03:37.686Z,14
2016-08-18T07:03:59.403Z,14
2016-08-18T07:04:21.122Z,14
2016-08-18T07:04:42.858Z,14
2016-08-18T07:05:04.566Z,14
2016-08-18T07:05:26.287Z,14
2016-08-18T07:05:52.802Z,14
2016-08-18T07:06:14.530Z,14
2016-08-18T07:06:36.252Z,14
2016-08-18T07:06:58.088Z,14
2016-08-18T07:07:19.807Z,14
2016-08-18T07:07:41.527Z,14
2016-08-18T07:08:03.248Z,14
2016-08-18T07:08:24.995Z,14
2016-08-18T07:08:46.720Z,14
2016-08-18T07:09:08.568Z,14
2016-08-18T07:09:30.417Z,14
2016-08-18T07:09:52.135Z,14
2016-08-18T07:10:13.919Z,14
2016-08-18T07:10:36.295Z,14
2016-08-18T07:10:58.026Z,14
2016-08-18T07:11:19.745Z,14
2016-08-18T07:11:41.517Z,15
2016-08-18T07:12:03.277Z,14
2016-08-18T07:12:24.998Z,14
2016-08-18T07:12:46.718Z,14
2016-08-18T07:13:08.439Z,14
2016-08-18T07:13:30.165Z,14
2016-08-18T07:13:51.893Z,14
2016-08-18T07:14:16.560Z,14
2016-08-18T07:15:04.785Z,15
2016-08-18T07:15:26.560Z,15
2016-08-18T07:15:48.274Z,15
2016-08-18T07:16:09.999Z,15
2016-08-18T07:16:31.744Z,15
2016-08-18T07:16:53.471Z,15
2016-08-18T07:17:15.216Z,15
2016-08-18T07:17:37.052Z,15
2016-08-18T07:17:58.779Z,15
2016-08-18T07:18:20.502Z,14
2016-08-18T07:18:42.227Z,15
2016-08-18T07:19:04.007Z,15
2016-08-18T07:19:25.729Z,15
2016-08-18T07:19:47.458Z,14
2016-08-18T07:20:09.179Z,14
2016-08-18T07:20:30.897Z,14
2016-08-18T07:20:52.617Z,14
2016-08-18T07:21:14.338Z,15
2016-08-18T07:21:36.055Z,14
2016-08-18T07:21:57.771Z,14
2016-08-18T07:22:19.537Z,14
2016-08-18T07:22:41.241Z,15
2016-08-18T07:23:02.962Z,15
2016-08-18T07:23:24.683Z,15
2016-08-18T07:23:46.403Z,14
2016-08-18T07:24:08.127Z,15
2016-08-18T07:24:29.856Z,14
2016-08-18T07:24:51.570Z,14
2016-08-18T07:25:13.289Z,14
2016-08-18T07:26:01.498Z,15
2016-08-18T07:26:23.282Z,14
2016-08-18T07:26:45.011Z,14
2016-08-18T07:27:09.711Z,14
2016-08-18T07:27:31.281Z,14
2016-08-18T07:27:53.008Z,14
2016-08-18T07:28:14.732Z,14
2016-08-18T07:28:36.461Z,14
2016-08-18T07:28:58.182Z,14
2016-08-18T07:29:19.915Z,14
2016-08-18T07:29:41.637Z,14
2016-08-18T07:30:03.364Z,14
2016-08-18T07:30:25.084Z,14
2016-08-18T07:30:46.806Z,14
2016-08-18T07:31:08.543Z,14
2016-08-18T07:31:30.255Z,14
2016-08-18T07:31:51.978Z,14
2016-08-18T07:32:13.707Z,14
2016-08-18T07:32:35.429Z,14
2016-08-18T07:32:57.179Z,14
2016-08-18T07:33:18.930Z,14
2016-08-18T07:33:43.199Z,14
2016-08-18T07:34:04.924Z,14
2016-08-18T07:34:26.635Z,14
2016-08-18T07:34:48.369Z,14
2016-08-18T07:35:10.091Z,14
2016-08-18T07:35:32.016Z,14
2016-08-18T07:35:56.268Z,14
2016-08-18T07:36:52.059Z,14
2016-08-18T07:37:13.801Z,14
2016-08-18T07:37:35.516Z,14
2016-08-18T07:37:57.244Z,14
2016-08-18T07:38:18.963Z,14
2016-08-18T07:38:40.713Z,14
2016-08-18T07:39:02.443Z,14
2016-08-18T07:39:24.169Z,14
2016-08-18T07:39:45.887Z,14
2016-08-18T07:40:07.607Z,14
2016-08-18T07:41:01.091Z,14
2016-08-18T07:41:27.398Z,14
2016-08-18T07:41:49.117Z,14
2016-08-18T07:42:10.835Z,14
2016-08-18T07:42:32.553Z,14
2016-08-18T07:42:54.267Z,14
2016-08-18T07:43:17.043Z,14
2016-08-18T07:43:38.774Z,14
2016-08-18T07:44:00.485Z,14
2016-08-18T07:44:22.199Z,14
2016-08-18T07:44:43.941Z,14
2016-08-18T07:45:05.637Z,14
2016-08-18T07:45:27.354Z,14
2016-08-18T07:45:49.074Z,14
2016-08-18T07:46:10.795Z,14
2016-08-18T07:46:32.518Z,14
2016-08-18T07:46:54.233Z,14
2016-08-18T07:47:15.961Z,14
2016-08-18T07:47:37.666Z,14
2016-08-18T07:47:59.421Z,14
2016-08-18T07:48:21.141Z,14
2016-08-18T07:48:47.634Z,14
2016-08-18T07:49:09.353Z,14
2016-08-18T07:49:32.069Z,14
2016-08-18T07:49:57.922Z,14
2016-08-18T07:50:19.638Z,14
2016-08-18T07:50:41.367Z,14
2016-08-18T07:51:04.051Z,14
2016-08-18T07:51:25.835Z,15
2016-08-18T07:51:48.624Z,15
2016-08-18T07:52:10.336Z,15
2016-08-18T07:52:32.106Z,15
2016-08-18T07:52:53.841Z,15
2016-08-18T07:53:15.637Z,16
2016-08-18T07:53:38.354Z,15
2016-08-18T07:54:04.949Z,15
2016-08-18T07:54:26.681Z,15
2016-08-18T07:54:48.442Z,15
2016-08-18T07:55:14.960Z,15
2016-08-18T07:55:44.187Z,15
2016-08-18T07:56:06.063Z,15
2016-08-18T07:56:27.776Z,15
2016-08-18T07:56:49.494Z,15
2016-08-18T07:57:11.219Z,15
2016-08-18T07:57:32.943Z,15
2016-08-18T07:57:54.672Z,15
2016-08-18T07:58:16.386Z,15
2016-08-18T07:58:38.316Z,15
2016-08-18T07:59:00.034Z,15
2016-08-18T07:59:21.770Z,15
2016-08-18T07:59:43.487Z,15
2016-08-18T08:00:10.302Z,15
2016-08-18T08:00:32.017Z,15
2016-08-18T08:00:53.768Z,15
2016-08-18T08:01:15.505Z,15
2016-08-18T08:01:37.351Z,15
2016-08-18T08:01:59.082Z,15
2016-08-18T08:03:26.921Z,15
2016-08-18T08:03:48.664Z,15
2016-08-18T08:04:10.408Z,15
2016-08-18T08:04:32.130Z,15
2016-08-18T08:04:53.851Z,15
2016-08-18T08:05:15.572Z,15
2016-08-18T08:05:37.314Z,15
2016-08-18T08:05:59.043Z,15
2016-08-18T08:06:20.784Z,15
2016-08-18T08:06:45.446Z,15
2016-08-18T08:07:07.163Z,15
2016-08-18T08:07:28.884Z,15
2016-08-18T08:07:50.683Z,15
2016-08-18T08:08:12.396Z,15
2016-08-18T08:08:34.116Z,12
2016-08-18T08:08:55.836Z,15
2016-08-18T08:09:17.566Z,15
2016-08-18T08:09:39.289Z,15
2016-08-18T08:10:01.042Z,15
2016-08-18T08:10:24.646Z,15
2016-08-18T08:10:46.406Z,15
2016-08-18T08:11:08.140Z,15
2016-08-18T08:11:29.864Z,15
2016-08-18T08:11:52.613Z,15
2016-08-18T08:12:14.330Z,15
2016-08-18T08:12:36.057Z,15
2016-08-18T08:12:57.789Z,15
2016-08-18T08:13:19.500Z,15
2016-08-18T08:13:41.216Z,15
2016-08-18T08:14:02.956Z,15
2016-08-18T08:14:24.700Z,15
2016-08-18T08:14:46.435Z,15
2016-08-18T08:15:08.235Z,15
2016-08-18T08:15:29.986Z,15
2016-08-18T08:15:51.708Z,15
2016-08-18T08:16:13.423Z,15
2016-08-18T08:16:36.164Z,15
2016-08-18T08:16:58.304Z,15
2016-08-18T08:17:20.035Z,15
2016-08-18T08:17:41.776Z,15
2016-08-18T08:18:03.528Z,15
2016-08-18T08:18:25.252Z,15
2016-08-18T08:18:49.772Z,15
2016-08-18T08:19:11.533Z,15
2016-08-18T08:19:33.234Z,15
2016-08-18T08:19:54.953Z,15
2016-08-18T08:20:16.698Z,15
2016-08-18T08:20:42.057Z,15
2016-08-18T08:21:03.779Z,15
2016-08-18T08:21:25.504Z,15
2016-08-18T08:21:47.279Z,14
2016-08-18T08:22:09.125Z,10
2016-08-18T08:22:31.001Z,13
2016-08-18T08:22:53.782Z,15
2016-08-18T08:23:15.528Z,15
2016-08-18T08:23:37.253Z,16
2016-08-18T08:23:59.007Z,16
2016-08-18T08:24:23.780Z,16
2016-08-18T08:24:45.559Z,16
2016-08-18T08:25:07.282Z,16
2016-08-18T08:25:29.160Z,16
2016-08-18T08:25:50.887Z,16
2016-08-18T08:26:12.613Z,16
2016-08-18T08:26:34.335Z,16
2016-08-18T08:26:56.053Z,16
2016-08-18T08:27:17.772Z,16
2016-08-18T08:27:39.733Z,16
2016-08-18T08:28:01.510Z,16
2016-08-18T08:28:23.243Z,16
2016-08-18T08:28:45.010Z,16
2016-08-18T08:29:06.774Z,16
2016-08-18T08:29:28.590Z,16
2016-08-18T08:29:51.625Z,16
2016-08-18T08:30:13.413Z,16
2016-08-18T08:30:35.154Z,16
2016-08-18T08:30:56.997Z,17
2016-08-18T08:31:18.727Z,17
2016-08-18T08:31:40.746Z,17
2016-08-18T08:32:02.602Z,17
2016-08-18T08:32:24.469Z,17
2016-08-18T08:32:46.227Z,17
2016-08-18T08:33:07.973Z,17
2016-08-18T08:33:29.779Z,16
2016-08-18T08:33:51.679Z,16
2016-08-18T08:34:13.723Z,16
2016-08-18T08:34:35.501Z,16
2016-08-18T08:34:57.260Z,16
2016-08-18T08:35:22.567Z,16
2016-08-18T08:35:44.759Z,16
2016-08-18T08:36:06.499Z,16
2016-08-18T08:36:28.260Z,16
2016-08-18T08:36:50.705Z,16
2016-08-18T08:37:13.676Z,16
2016-08-18T08:37:35.407Z,16
2016-08-18T08:37:57.157Z,16
2016-08-18T08:38:18.893Z,16
2016-08-18T08:38:41.111Z,16
2016-08-18T08:39:03.415Z,16
2016-08-18T08:39:25.180Z,16
2016-08-18T08:39:46.902Z,16
2016-08-18T08:40:08.905Z,16
2016-08-18T08:40:34.919Z,16
2016-08-18T08:40:56.672Z,16
2016-08-18T08:41:18.397Z,16
2016-08-18T08:42:06.629Z,16
2016-08-18T08:42:28.351Z,17
2016-08-18T08:42:50.103Z,17
2016-08-18T08:43:11.830Z,17
2016-08-18T08:43:34.488Z,17
2016-08-18T08:43:56.213Z,17
2016-08-18T08:44:20.768Z,17
2016-08-18T08:44:42.610Z,17
2016-08-18T08:45:09.148Z,17
2016-08-18T08:45:30.875Z,17
2016-08-18T08:45:53.034Z,17
2016-08-18T08:46:14.784Z,17
2016-08-18T08:46:36.531Z,17
2016-08-18T08:46:58.263Z,17
2016-08-18T08:47:19.993Z,17
2016-08-18T08:47:41.867Z,17
2016-08-18T08:48:03.606Z,17
2016-08-18T08:48:25.340Z,17
2016-08-18T08:48:47.091Z,17
2016-08-18T08:49:08.831Z,17
2016-08-18T08:49:30.603Z,17
2016-08-18T08:49:52.327Z,17
2016-08-18T08:50:14.070Z,17
2016-08-18T08:50:35.807Z,17
2016-08-18T08:51:01.562Z,17
2016-08-18T08:51:23.294Z,17
2016-08-18T08:51:46.028Z,17
2016-08-18T08:52:07.839Z,17
2016-08-18T08:52:29.625Z,17
2016-08-18T08:52:51.806Z,17
2016-08-18T08:53:14.873Z,17
2016-08-18T08:53:41.435Z,17
2016-08-18T08:54:03.313Z,17
2016-08-18T08:54:25.253Z,17
2016-08-18T08:54:47.216Z,18
2016-08-18T08:55:09.081Z,17
2016-08-18T08:55:34.318Z,18
2016-08-18T08:56:00.828Z,18
2016-08-18T08:56:24.036Z,17
2016-08-18T08:56:45.880Z,17
2016-08-18T08:57:07.817Z,17
2016-08-18T08:57:29.668Z,18
2016-08-18T08:57:53.072Z,17
2016-08-18T08:58:15.080Z,17
2016-08-18T08:58:36.895Z,17
2016-08-18T08:58:58.922Z,18
2016-08-18T08:59:20.782Z,18
2016-08-18T08:59:43.671Z,18
2016-08-18T09:00:05.518Z,18
2016-08-18T09:00:27.286Z,18
2016-08-18T09:00:49.086Z,18
2016-08-18T09:01:10.810Z,18
2016-08-18T09:01:32.762Z,18
2016-08-18T09:01:54.562Z,18
2016-08-18T09:02:16.467Z,18
2016-08-18T09:02:38.265Z,18
2016-08-18T09:03:00.259Z,18
2016-08-18T09:03:22.169Z,18
2016-08-18T09:03:44.044Z,18
2016-08-18T09:04:05.789Z,17
2016-08-18T09:04:27.756Z,18
2016-08-18T09:04:54.276Z,18
2016-08-18T09:05:16.134Z,18
2016-08-18T09:05:37.878Z,18
2016-08-18T09:05:59.784Z,18
2016-08-18T09:06:21.672Z,18
2016-08-18T09:06:43.527Z,18
2016-08-18T09:07:10.052Z,18
2016-08-18T09:07:33.019Z,18
2016-08-18T09:07:55.743Z,18
2016-08-18T09:08:22.258Z,18
2016-08-18T09:08:45.037Z,18
2016-08-18T09:09:06.870Z,18
2016-08-18T09:09:28.681Z,18
2016-08-18T09:09:50.499Z,18
2016-08-18T09:10:12.297Z,19
2016-08-18T09:10:34.038Z,19
2016-08-18T09:11:00.627Z,19
2016-08-18T09:11:22.386Z,19
2016-08-18T09:11:45.178Z,18
2016-08-18T09:12:11.698Z,19
2016-08-18T09:12:39.228Z,19
2016-08-18T09:13:01.980Z,19
2016-08-18T09:13:50.216Z,19
2016-08-18T09:14:11.971Z,19
2016-08-18T09:14:33.790Z,19
2016-08-18T09:15:00.412Z,19
2016-08-18T09:15:23.855Z,19
2016-08-18T09:15:45.665Z,19
2016-08-18T09:16:07.513Z,19
2016-08-18T09:16:29.331Z,19
2016-08-18T09:16:51.124Z,19
2016-08-18T09:17:12.880Z,20
2016-08-18T09:17:34.795Z,19
2016-08-18T09:17:56.670Z,20
2016-08-18T09:18:18.815Z,20
2016-08-18T09:18:40.778Z,20
2016-08-18T09:19:02.707Z,20
2016-08-18T09:19:24.615Z,20
2016-08-18T09:19:47.482Z,20
2016-08-18T09:20:14.626Z,20
2016-08-18T09:20:36.663Z,20
2016-08-18T09:20:58.385Z,20
2016-08-18T09:21:20.147Z,20
2016-08-18T09:21:41.902Z,20
2016-08-18T09:22:09.471Z,21
2016-08-18T09:23:02.499Z,21
2016-08-18T09:23:56.531Z,21
2016-08-18T09:24:18.393Z,21
2016-08-18T09:24:40.462Z,21
2016-08-18T09:25:02.646Z,21
2016-08-18T09:25:26.482Z,21
2016-08-18T09:25:48.344Z,21
2016-08-18T09:26:10.138Z,21
2016-08-18T09:26:31.952Z,21
2016-08-18T09:26:53.782Z,21
2016-08-18T09:27:17.671Z,21
2016-08-18T09:27:39.604Z,21
2016-08-18T09:28:01.495Z,21
2016-08-18T09:28:25.938Z,21
2016-08-18T09:28:47.894Z,21
2016-08-18T09:29:14.444Z,21
2016-08-18T09:29:36.219Z,21
2016-08-18T09:29:58.130Z,21
2016-08-18T09:30:20.026Z,22
2016-08-18T09:30:43.684Z,21
2016-08-18T09:31:05.551Z,21
2016-08-18T09:31:54.268Z,21
2016-08-18T09:32:16.352Z,21
2016-08-18T09:32:39.209Z,22
2016-08-18T09:33:01.059Z,22
2016-08-18T09:33:23.132Z,22
2016-08-18T09:33:44.872Z,22
2016-08-18T09:34:06.617Z,22
2016-08-18T09:34:29.352Z,22
2016-08-18T09:35:22.525Z,22
2016-08-18T09:35:45.118Z,22
2016-08-18T09:36:07.276Z,22
2016-08-18T09:36:33.798Z,22
2016-08-18T09:36:56.636Z,22
2016-08-18T09:37:18.532Z,22
2016-08-18T09:37:40.509Z,22
2016-08-18T09:38:02.394Z,22
2016-08-18T09:38:24.193Z,22
2016-08-18T09:38:46.035Z,22
2016-08-18T09:39:07.941Z,22
2016-08-18T09:39:29.799Z,23
2016-08-18T09:39:52.608Z,22
2016-08-18T09:40:14.470Z,23
2016-08-18T09:40:41.210Z,23
2016-08-18T09:41:07.715Z,23
2016-08-18T09:41:30.466Z,23
2016-08-18T09:42:18.753Z,23
2016-08-18T09:42:40.579Z,23
2016-08-18T09:43:02.330Z,23
2016-08-18T09:43:24.075Z,23
2016-08-18T09:43:45.832Z,23
2016-08-18T09:44:07.642Z,23
2016-08-18T09:44:29.620Z,23
2016-08-18T09:44:51.524Z,23
2016-08-18T09:45:13.459Z,23
2016-08-18T09:45:35.901Z,23
2016-08-18T09:45:57.856Z,23
2016-08-18T09:46:19.741Z,23
2016-08-18T09:46:41.533Z,23
2016-08-18T09:47:03.504Z,23
2016-08-18T09:47:26.255Z,24
2016-08-18T09:47:48.125Z,24
2016-08-18T09:48:10.012Z,24
2016-08-18T09:48:32.044Z,24
2016-08-18T09:48:53.940Z,24
2016-08-18T09:49:15.931Z,24
2016-08-18T09:49:37.744Z,24
2016-08-18T09:49:59.558Z,25
2016-08-18T09:50:22.579Z,25
2016-08-18T09:50:50.265Z,25
2016-08-18T09:51:12.041Z,25
2016-08-18T09:51:39.607Z,24
2016-08-18T09:52:01.370Z,25
2016-08-18T09:52:23.122Z,25
2016-08-18T09:52:47.416Z,25
2016-08-18T09:53:09.273Z,25
2016-08-18T09:53:31.166Z,25
2016-08-18T09:53:54.147Z,25
2016-08-18T09:54:16.019Z,25
2016-08-18T09:55:10.263Z,25
2016-08-18T09:55:32.080Z,25
2016-08-18T09:55:53.863Z,26
2016-08-18T09:56:15.850Z,26
2016-08-18T09:56:37.607Z,26
2016-08-18T09:56:59.466Z,25
2016-08-18T09:57:21.366Z,25
2016-08-18T09:57:43.223Z,25
2016-08-18T09:58:05.132Z,25
2016-08-18T09:58:27.242Z,25
2016-08-18T09:58:49.268Z,25
2016-08-18T09:59:11.271Z,25
2016-08-18T09:59:33.217Z,25
2016-08-18T09:59:56.444Z,25
2016-08-18T10:00:18.329Z,25
2016-08-18T10:00:49.737Z,25
2016-08-18T10:01:11.604Z,25
2016-08-18T10:01:33.394Z,25
2016-08-18T10:01:55.211Z,26
2016-08-18T10:02:17.185Z,26
2016-08-18T10:02:39.072Z,26
2016-08-18T10:03:01.804Z,26
2016-08-18T10:03:24.668Z,26
2016-08-18T10:03:46.492Z,26
2016-08-18T10:04:08.297Z,26
2016-08-18T10:04:30.078Z,26
2016-08-18T10:04:52.180Z,26
2016-08-18T10:05:14.027Z,26
2016-08-18T10:05:36.012Z,26
2016-08-18T10:05:57.790Z,27
2016-08-18T10:06:19.692Z,27
2016-08-18T10:06:46.413Z,28
2016-08-18T10:07:08.131Z,27
2016-08-18T10:07:29.889Z,27
2016-08-18T10:07:52.312Z,27
2016-08-18T10:08:18.815Z,27
2016-08-18T10:09:07.052Z,28
2016-08-18T10:09:28.779Z,28
2016-08-18T10:09:53.137Z,28
2016-08-18T10:10:24.010Z,28
2016-08-18T10:11:16.902Z,28
2016-08-18T10:11:38.663Z,28
2016-08-18T10:12:01.383Z,29
2016-08-18T10:12:23.148Z,30
2016-08-18T10:12:45.870Z,29
2016-08-18T10:13:07.592Z,29
2016-08-18T10:13:30.333Z,29
2016-08-18T10:13:52.070Z,30
2016-08-18T10:14:13.791Z,30
2016-08-18T10:14:35.513Z,30
2016-08-18T10:14:57.238Z,30
2016-08-18T10:15:24.752Z,30
2016-08-18T10:15:46.492Z,30
2016-08-18T10:16:08.215Z,31
2016-08-18T10:16:29.951Z,31
2016-08-18T10:16:51.683Z,31
2016-08-18T10:17:13.628Z,31
2016-08-18T10:17:40.126Z,31
2016-08-18T10:18:01.849Z,32
2016-08-18T10:18:23.577Z,32
2016-08-18T10:18:46.306Z,32
2016-08-18T10:19:08.030Z,32
2016-08-18T10:19:29.755Z,32
2016-08-18T10:19:51.491Z,32
2016-08-18T10:20:13.230Z,32
2016-08-18T10:20:34.960Z,32
2016-08-18T10:20:56.699Z,32
2016-08-18T10:21:44.920Z,32
2016-08-18T10:22:11.421Z,32
2016-08-18T10:22:33.152Z,32
2016-08-18T10:22:54.879Z,32
2016-08-18T10:23:53.749Z,32
2016-08-18T10:24:15.515Z,32
2016-08-18T10:24:40.067Z,32
2016-08-18T10:25:01.822Z,32
2016-08-18T10:25:23.509Z,32
2016-08-18T10:25:45.255Z,32
2016-08-18T10:26:08.380Z,32
2016-08-18T10:26:30.316Z,32
2016-08-18T10:26:52.321Z,31
2016-08-18T10:27:14.045Z,31
2016-08-18T10:27:35.765Z,31
2016-08-18T10:27:57.491Z,31
2016-08-18T10:28:20.283Z,31
2016-08-18T10:28:42.016Z,30
2016-08-18T10:29:04.798Z,32
2016-08-18T10:29:27.711Z,31
2016-08-18T10:29:49.986Z,32
2016-08-18T10:30:13.302Z,31
2016-08-18T10:30:35.104Z,31
2016-08-18T10:30:56.840Z,31
2016-08-18T10:31:18.898Z,31
2016-08-18T10:31:40.616Z,31
2016-08-18T10:32:02.338Z,31
2016-08-18T10:32:24.073Z,31
2016-08-18T10:32:46.057Z,31
2016-08-18T10:33:07.792Z,32
2016-08-18T10:33:31.631Z,32
2016-08-18T10:33:53.396Z,32
2016-08-18T10:34:15.146Z,32
2016-08-18T10:34:36.880Z,32
2016-08-18T10:35:04.952Z,32
2016-08-18T10:35:26.684Z,33
2016-08-18T10:35:48.409Z,33
2016-08-18T10:36:10.131Z,34
2016-08-18T10:36:31.857Z,34
2016-08-18T10:36:53.614Z,34
2016-08-18T10:37:16.326Z,34
2016-08-18T10:37:38.050Z,34
2016-08-18T10:37:59.774Z,34
2016-08-18T10:38:47.986Z,34
2016-08-18T10:39:10.708Z,34
2016-08-18T10:39:35.318Z,35
2016-08-18T10:39:57.044Z,35
2016-08-18T10:40:18.832Z,35
2016-08-18T10:40:40.548Z,36
2016-08-18T10:41:02.307Z,35
2016-08-18T10:41:24.021Z,35
2016-08-18T10:41:45.773Z,36
2016-08-18T10:42:07.500Z,37
2016-08-18T10:42:29.224Z,38
2016-08-18T10:42:55.711Z,38
2016-08-18T10:43:20.216Z,37
2016-08-18T10:43:41.963Z,38
2016-08-18T10:44:03.686Z,37
2016-08-18T10:44:25.409Z,37
2016-08-18T10:44:47.127Z,37
2016-08-18T10:45:09.080Z,36
2016-08-18T10:45:31.230Z,37
2016-08-18T10:45:52.969Z,37
2016-08-18T10:46:19.474Z,38
2016-08-18T10:46:41.218Z,37
2016-08-18T10:47:07.721Z,38
2016-08-18T10:47:55.986Z,38
2016-08-18T10:48:17.748Z,38
2016-08-18T10:48:39.480Z,38
2016-08-18T10:49:02.219Z,38
2016-08-18T10:49:26.059Z,38
2016-08-18T10:49:48.784Z,38
2016-08-18T10:50:10.529Z,38
2016-08-18T10:50:32.251Z,38
2016-08-18T10:50:54.000Z,38
2016-08-18T10:51:15.720Z,39
2016-08-18T10:51:37.441Z,39
2016-08-18T10:51:59.166Z,39
2016-08-18T10:52:20.890Z,39
2016-08-18T10:52:42.616Z,39
2016-08-18T10:53:04.344Z,39
2016-08-18T10:53:26.059Z,38
2016-08-18T10:53:47.780Z,37
2016-08-18T10:54:09.502Z,38
2016-08-18T10:54:31.236Z,38